createdAt,value
2022-09-01T00:00:13.639Z,99076.59
2022-09-01T00:02:44.456Z,99087.72
2022-09-01T00:05:13.218Z,99093.28
2022-09-01T00:07:40.682Z,99079.25
2022-09-01T00:10:08.954Z,99073.59
2022-09-01T00:12:38.377Z,99080.38
2022-09-01T00:15:08.810Z,99073.53
2022-09-01T00:17:40.111Z,99077.06
2022-09-01T00:20:08.036Z,99061.00
2022-09-01T00:22:35.218Z,99070.59
2022-09-01T00:25:02.270Z,99051.34
2022-09-01T00:27:30.962Z,99067.34
2022-09-01T00:30:00.133Z,99063.28
2022-09-01T00:32:28.047Z,99073.28
2022-09-01T00:34:55.724Z,99075.25
2022-09-01T00:37:22.992Z,99064.44
2022-09-01T00:39:50.339Z,99064.84
2022-09-01T00:42:17.595Z,99072.97
2022-09-01T00:44:44.795Z,99066.56
2022-09-01T00:47:14.662Z,99057.72
2022-09-01T00:49:46.940Z,99067.38
2022-09-01T00:52:19.038Z,99069.09
2022-09-01T00:54:51.512Z,99072.31
2022-09-01T00:57:18.997Z,99049.03
2022-09-01T00:59:53.169Z,99075.38
2022-09-01T01:02:20.557Z,99075.06
2022-09-01T01:04:47.682Z,99068.28
2022-09-01T01:07:17.069Z,99065.03
2022-09-01T01:09:46.247Z,99073.00
2022-09-01T01:12:18.612Z,99069.31
2022-09-01T01:14:50.595Z,99074.41
2022-09-01T01:17:22.084Z,99076.38
2022-09-01T01:20:12.457Z,99063.16
2022-09-01T01:23:11.042Z,99045.44
2022-09-01T01:25:49.174Z,99071.09
2022-09-01T01:28:24.782Z,99056.56
2022-09-01T01:31:01.610Z,99064.66
2022-09-01T01:33:42.999Z,99062.63
2022-09-01T01:36:16.553Z,99062.66
2022-09-01T01:38:47.035Z,99065.50
2022-09-01T01:41:17.723Z,99065.91
2022-09-01T01:43:45.031Z,99062.78
2022-09-01T01:46:14.904Z,99055.94
2022-09-01T01:48:43.188Z,99033.72
2022-09-01T01:51:12.053Z,99064.56
2022-09-01T01:53:40.841Z,99056.09
2022-09-01T01:56:09.609Z,99053.28
2022-09-01T01:58:37.468Z,99059.28
2022-09-01T02:01:12.841Z,99057.22
2022-09-01T02:03:41.094Z,99051.63
2022-09-01T02:06:10.549Z,99060.78
2022-09-01T02:08:39.494Z,99045.22
2022-09-01T02:11:07.690Z,99051.22
2022-09-01T02:13:36.073Z,99053.59
2022-09-01T02:16:17.036Z,99054.75
2022-09-01T02:18:48.997Z,99055.84
2022-09-01T02:21:22.653Z,99001.56
2022-09-01T02:24:02.264Z,99053.63
2022-09-01T02:26:34.906Z,99063.19
2022-09-01T02:29:06.056Z,99061.59
2022-09-01T02:31:39.979Z,99060.78
2022-09-01T02:34:14.244Z,99055.16
2022-09-01T02:36:48.314Z,99058.34
2022-09-01T02:39:23.695Z,99063.97
2022-09-01T02:41:52.319Z,99060.25
2022-09-01T02:44:24.250Z,99067.44
2022-09-01T02:46:51.599Z,99053.38
2022-09-01T02:49:28.388Z,99057.31
2022-09-01T02:52:01.665Z,99059.66
2022-09-01T02:54:32.532Z,99059.63
2022-09-01T02:57:00.722Z,99067.56
2022-09-01T02:59:30.532Z,99064.78
2022-09-01T03:02:00.412Z,99058.78
2022-09-01T03:04:27.862Z,99058.81
2022-09-01T03:06:59.055Z,99063.59
2022-09-01T03:09:26.413Z,99059.56
2022-09-01T03:11:54.381Z,99065.94
2022-09-01T03:14:24.922Z,99065.94
2022-09-01T03:16:52.465Z,99059.66
2022-09-01T03:19:22.276Z,99060.47
2022-09-01T03:21:51.632Z,99060.47
2022-09-01T03:24:26.079Z,99058.91
2022-09-01T03:26:56.922Z,99060.47
2022-09-01T03:29:24.898Z,99060.13
2022-09-01T03:31:53.030Z,99053.38
2022-09-01T03:34:23.744Z,99061.16
2022-09-01T03:36:54.978Z,99061.13
2022-09-01T03:39:29.873Z,99057.47
2022-09-01T03:41:58.945Z,99065.81
2022-09-01T03:44:27.488Z,99062.22
2022-09-01T03:46:54.960Z,99071.78
2022-09-01T03:49:27.896Z,99056.19
2022-09-01T03:51:58.424Z,99075.03
2022-09-01T03:54:28.565Z,99047.03
2022-09-01T03:56:59.655Z,99074.41
2022-09-01T03:59:28.692Z,99075.22
2022-09-01T04:01:56.928Z,99075.25
2022-09-01T04:04:24.780Z,99068.81
2022-09-01T04:06:52.642Z,99086.63
2022-09-01T04:09:21.183Z,99074.56
2022-09-01T04:11:48.552Z,99096.63
2022-09-01T04:14:20.582Z,99089.81
2022-09-01T04:17:08.867Z,99092.28
2022-09-01T04:19:39.718Z,99106.66
2022-09-01T04:22:14.396Z,99085.13
2022-09-01T04:24:46.601Z,99099.88
2022-09-01T04:27:18.316Z,99092.41
2022-09-01T04:29:47.167Z,99090.84
2022-09-01T04:32:15.966Z,99094.94
2022-09-01T04:34:47.090Z,99077.78
2022-09-01T04:37:19.132Z,99085.22
2022-09-01T04:39:55.739Z,99100.88
2022-09-01T04:42:29.884Z,99103.34
2022-09-01T04:45:07.163Z,99096.94
2022-09-01T04:47:45.543Z,99086.19
2022-09-01T04:50:17.990Z,99087.47
2022-09-01T04:53:06.323Z,99087.06
2022-09-01T04:55:50.024Z,99098.66
2022-09-01T04:58:22.138Z,99094.72
2022-09-01T05:00:53.463Z,99099.56
2022-09-01T05:03:24.415Z,99072.88
2022-09-01T05:06:23.851Z,99090.59
2022-09-01T05:08:58.532Z,99083.03
2022-09-01T05:11:45.603Z,99079.84
2022-09-01T05:14:30.925Z,99079.84
2022-09-01T05:16:59.767Z,99080.63
2022-09-01T05:19:30.905Z,99077.44
2022-09-01T05:22:00.602Z,99074.66
2022-09-01T05:24:30.574Z,99076.66
2022-09-01T05:27:01.225Z,99070.69
2022-09-01T05:29:29.764Z,99057.50
2022-09-01T05:31:58.832Z,99060.75
2022-09-01T05:34:27.343Z,99053.91
2022-09-01T05:36:58.212Z,99049.94
2022-09-01T05:39:27.329Z,99052.34
2022-09-01T05:41:54.773Z,99058.34
2022-09-01T05:44:23.091Z,99055.53
2022-09-01T05:46:53.678Z,99060.75
2022-09-01T05:49:21.470Z,99065.94
2022-09-01T05:51:52.553Z,99059.13
2022-09-01T05:54:23.337Z,99061.53
2022-09-01T05:56:50.887Z,99058.72
2022-09-01T05:59:24.905Z,99059.94
2022-09-01T06:02:01.107Z,99057.53
2022-09-01T06:04:30.290Z,99060.72
2022-09-01T06:07:09.017Z,99071.06
2022-09-01T06:09:43.750Z,99059.84
2022-09-01T06:12:18.654Z,99066.22
2022-09-01T06:14:48.535Z,99067.00
2022-09-01T06:17:19.715Z,99078.97
2022-09-01T06:19:47.075Z,99079.38
2022-09-01T06:22:16.200Z,99080.94
2022-09-01T06:24:43.887Z,99074.91
2022-09-01T06:27:12.895Z,99085.25
2022-09-01T06:29:41.792Z,99075.16
2022-09-01T06:32:13.229Z,99089.97
2022-09-01T06:34:43.790Z,99084.00
2022-09-01T06:37:13.427Z,99074.00
2022-09-01T06:39:44.221Z,99084.00
2022-09-01T06:42:14.116Z,99079.56
2022-09-01T06:44:51.263Z,99091.13
2022-09-01T06:47:19.500Z,99084.66
2022-09-01T06:49:46.660Z,99101.81
2022-09-01T06:52:22.706Z,99086.56
2022-09-01T06:54:53.346Z,99091.72
2022-09-01T07:00:20.247Z,99097.66
2022-09-01T07:02:55.061Z,99101.22
2022-09-01T07:16:30.107Z,99088.13
2022-09-01T07:17:24.475Z,99081.22
2022-09-01T07:19:52.121Z,99073.84
2022-09-01T07:25:12.171Z,99072.78
2022-09-01T07:27:55.719Z,99075.00
2022-09-01T07:30:29.206Z,99074.78
2022-09-01T07:33:41.456Z,99089.94
2022-09-01T07:36:25.700Z,99090.63
2022-09-01T07:44:29.178Z,99093.69
2022-09-01T07:53:12.713Z,99078.66
2022-09-01T07:55:44.356Z,99088.16
2022-09-01T07:58:13.585Z,99079.28
2022-09-01T08:00:47.436Z,99071.34
2022-09-01T08:03:19.136Z,99075.75
2022-09-01T08:05:47.587Z,99076.88
2022-09-01T08:08:27.760Z,99074.91
2022-09-01T08:11:04.241Z,99072.47
2022-09-01T08:13:41.637Z,99068.84
2022-09-01T08:16:17.970Z,99068.66
2022-09-01T08:18:49.059Z,99066.91
2022-09-01T08:21:41.070Z,99059.69
2022-09-01T08:24:40.634Z,99060.09
2022-09-01T08:27:08.510Z,99061.41
2022-09-01T08:29:35.957Z,99052.81
2022-09-01T08:32:03.538Z,99056.28
2022-09-01T08:34:33.566Z,99046.59
2022-09-01T08:37:01.095Z,99050.72
2022-09-01T08:39:28.463Z,99051.38
2022-09-01T08:42:12.417Z,99031.75
2022-09-01T08:45:07.826Z,99047.84
2022-09-01T08:47:55.970Z,99042.25
2022-09-01T08:50:23.890Z,99045.38
2022-09-01T08:53:21.164Z,99030.31
2022-09-01T08:55:55.790Z,99041.31
2022-09-01T08:58:23.158Z,99029.56
2022-09-01T09:01:41.768Z,99031.03
2022-09-01T09:04:19.902Z,99001.53
2022-09-01T09:06:53.759Z,99022.28
2022-09-01T09:09:32.315Z,99021.31
2022-09-01T09:12:25.362Z,99017.00
2022-09-01T09:15:11.947Z,99022.56
2022-09-01T09:17:56.020Z,99007.19
2022-09-01T09:20:28.148Z,99006.06
2022-09-01T09:22:59.353Z,99014.81
2022-09-01T09:25:29.786Z,99006.31
2022-09-01T09:28:00.821Z,99002.69
2022-09-01T09:30:31.475Z,99000.41
2022-09-01T09:36:17.190Z,99001.22
2022-09-01T09:38:44.400Z,98985.59
2022-09-01T09:41:26.907Z,98995.41
2022-09-01T09:44:16.633Z,98971.34
2022-09-01T09:46:47.719Z,98994.22
2022-09-01T09:49:21.682Z,98982.81
2022-09-01T09:52:18.281Z,98987.50
2022-09-01T09:55:30.575Z,98983.81
2022-09-01T09:58:09.615Z,98972.72
2022-09-01T10:00:37.094Z,98979.97
2022-09-01T10:03:12.449Z,98975.03
2022-09-01T10:05:48.923Z,98975.38
2022-09-01T10:08:31.496Z,98970.72
2022-09-01T10:10:59.223Z,98968.38
2022-09-01T10:13:33.575Z,98967.50
2022-09-01T10:16:05.423Z,98967.09
2022-09-01T10:18:38.680Z,98966.19
2022-09-01T10:21:15.266Z,98965.31
2022-09-01T10:23:43.521Z,98941.56
2022-09-01T10:26:23.131Z,98953.00
2022-09-01T10:29:00.154Z,98955.09
2022-09-01T10:31:32.229Z,98952.38
2022-09-01T10:34:05.464Z,98950.69
2022-09-01T10:36:37.804Z,98953.00
2022-09-01T10:39:08.753Z,98955.56
2022-09-01T10:41:42.616Z,98961.66
2022-09-01T10:44:19.395Z,98951.91
2022-09-01T10:46:51.364Z,98948.03
2022-09-01T10:49:38.605Z,98942.69
2022-09-01T10:52:12.950Z,98957.09
2022-09-01T10:54:58.069Z,98946.66
2022-09-01T10:57:51.906Z,98940.88
2022-09-01T11:06:13.707Z,98936.28
2022-09-01T11:08:51.057Z,98923.28
2022-09-01T11:12:05.831Z,98917.47
2022-09-01T11:14:36.082Z,98911.91
2022-09-01T11:17:26.511Z,98914.88
2022-09-01T11:20:12.871Z,98918.84
2022-09-01T11:22:46.838Z,98918.59
2022-09-01T11:25:39.266Z,98919.50
2022-09-01T11:28:18.180Z,98909.56
2022-09-01T11:30:55.519Z,98870.41
2022-09-01T11:33:33.677Z,98901.72
2022-09-01T11:36:24.343Z,98902.31
2022-09-01T11:38:58.926Z,98889.47
2022-09-01T11:41:34.140Z,98896.34
2022-09-01T11:44:04.431Z,98882.13
2022-09-01T11:46:34.899Z,98886.03
2022-09-01T11:49:18.521Z,98879.56
2022-09-01T11:52:17.062Z,98876.44
2022-09-01T11:54:46.860Z,98885.97
2022-09-01T11:57:30.144Z,98878.91
2022-09-01T12:00:00.077Z,98880.75
2022-09-01T12:02:36.727Z,98882.25
2022-09-01T12:05:41.084Z,98872.28
2022-09-01T12:08:18.455Z,98871.09
2022-09-01T12:11:03.614Z,98878.81
2022-09-01T12:13:30.926Z,98874.34
2022-09-01T12:16:19.010Z,98872.31
2022-09-01T12:18:50.012Z,98861.09
2022-09-01T12:21:42.809Z,98873.34
2022-09-01T12:24:34.307Z,98875.53
2022-09-01T12:27:02.351Z,98872.09
2022-09-01T12:29:32.149Z,98866.50
2022-09-01T12:32:00.792Z,98862.81
2022-09-01T12:34:33.627Z,98862.19
2022-09-01T12:37:10.442Z,98865.28
2022-09-01T12:39:46.250Z,98860.88
2022-09-01T12:42:26.056Z,98852.78
2022-09-01T12:45:09.049Z,98844.72
2022-09-01T12:47:36.389Z,98846.88
2022-09-01T12:50:16.966Z,98839.44
2022-09-01T12:52:53.554Z,98843.75
2022-09-01T12:58:12.819Z,98838.53
2022-09-01T13:01:00.827Z,98844.34
2022-09-01T13:03:30.236Z,98839.69
2022-09-01T13:05:59.920Z,98833.88
2022-09-01T13:08:34.213Z,98835.59
2022-09-01T13:11:15.860Z,98828.78
2022-09-01T13:13:43.579Z,98830.50
2022-09-01T13:16:13.170Z,98825.84
2022-09-01T13:21:31.641Z,98830.31
2022-09-01T13:23:59.220Z,98833.81
2022-09-01T13:26:26.545Z,98833.81
2022-09-01T13:28:54.050Z,98835.75
2022-09-01T13:31:29.267Z,98827.56
2022-09-01T13:34:20.570Z,98836.53
2022-09-01T13:36:48.575Z,98833.81
2022-09-01T13:39:19.042Z,98840.38
2022-09-01T13:41:48.556Z,98839.25
2022-09-01T13:44:17.714Z,98837.88
2022-09-01T13:47:28.271Z,98826.41
2022-09-01T13:52:21.695Z,98837.28
2022-09-01T13:54:50.076Z,98840.22
2022-09-01T13:57:19.618Z,98840.88
2022-09-01T13:59:46.730Z,98841.22
2022-09-01T14:02:13.950Z,98825.31
2022-09-01T14:04:41.509Z,98834.44
2022-09-01T14:07:08.845Z,98840.63
2022-09-01T14:09:38.951Z,98836.69
2022-09-01T14:12:07.945Z,98832.72
2022-09-01T14:17:26.514Z,98834.28
2022-09-01T14:19:53.851Z,98833.06
2022-09-01T14:22:21.226Z,98830.56
2022-09-01T14:24:49.007Z,98833.19
2022-09-01T14:27:16.329Z,98834.91
2022-09-01T14:32:09.993Z,98831.78
2022-09-01T14:34:37.645Z,98830.44
2022-09-01T14:37:05.091Z,98831.38
2022-09-01T14:39:32.493Z,98835.44
2022-09-01T14:42:00.741Z,98832.63
2022-09-01T14:44:27.970Z,98826.97
2022-09-01T14:46:55.301Z,98827.38
2022-09-01T14:49:22.691Z,98836.03
2022-09-01T14:54:40.066Z,98836.22
2022-09-01T14:59:54.760Z,98833.63
2022-09-01T15:02:22.170Z,98832.94
2022-09-01T15:04:49.328Z,98827.50
2022-09-01T15:07:16.630Z,98833.06
2022-09-01T15:09:43.785Z,98830.44
2022-09-01T15:12:11.046Z,98842.69
2022-09-01T15:14:38.477Z,98834.28
2022-09-01T15:17:07.258Z,98839.28
2022-09-01T15:19:35.397Z,98841.53
2022-09-01T15:22:03.374Z,98847.34
2022-09-01T15:24:30.835Z,98844.75
2022-09-01T15:26:58.242Z,98837.03
2022-09-01T15:30:17.359Z,98839.72
2022-09-01T15:32:50.527Z,98840.13
2022-09-01T15:35:19.487Z,98842.78
2022-09-01T15:37:48.256Z,98847.75
2022-09-01T15:40:16.665Z,98851.81
2022-09-01T15:42:43.911Z,98849.28
2022-09-01T15:45:15.063Z,98857.66
2022-09-01T15:47:45.601Z,98850.09
2022-09-01T15:50:16.843Z,98857.00
2022-09-01T15:52:59.610Z,98845.50
2022-09-01T15:55:41.190Z,98853.47
2022-09-01T15:58:09.994Z,98845.88
2022-09-01T16:00:37.267Z,98840.56
2022-09-01T16:03:06.076Z,98841.44
2022-09-01T16:05:36.774Z,98844.72
2022-09-01T16:08:09.845Z,98839.16
2022-09-01T16:10:40.153Z,98852.16
2022-09-01T16:13:08.547Z,98848.34
2022-09-01T16:15:51.220Z,98855.84
2022-09-01T16:18:42.285Z,98844.59
2022-09-01T16:21:30.978Z,98861.06
2022-09-01T16:24:06.055Z,98849.13
2022-09-01T16:26:36.202Z,98859.09
2022-09-01T16:29:11.247Z,98854.22
2022-09-01T16:31:42.834Z,98867.38
2022-09-01T16:34:14.801Z,98859.16
2022-09-01T16:36:41.848Z,98864.81
2022-09-01T16:39:47.284Z,98873.38
2022-09-01T16:42:46.893Z,98867.00
2022-09-01T16:45:40.893Z,98866.56
2022-09-01T16:48:19.602Z,98855.88
2022-09-01T16:51:03.011Z,98866.63
2022-09-01T16:53:53.234Z,98891.63
2022-09-01T16:56:35.750Z,98894.88
2022-09-01T16:59:14.450Z,98904.66
2022-09-01T17:02:07.136Z,98894.44
2022-09-01T17:04:47.769Z,98910.97
2022-09-01T17:07:15.017Z,98915.44
2022-09-01T17:09:46.452Z,98908.19
2022-09-01T17:12:27.858Z,98913.13
2022-09-01T17:15:02.130Z,98912.63
2022-09-01T17:17:42.427Z,98923.13
2022-09-01T17:20:12.089Z,98912.78
2022-09-01T17:22:46.654Z,98916.81
2022-09-01T17:25:26.147Z,98927.31
2022-09-01T17:28:25.603Z,98932.16
2022-09-01T17:31:28.539Z,98935.50
2022-09-01T17:34:31.473Z,98943.47
2022-09-01T17:37:06.283Z,98946.28
2022-09-01T17:40:15.558Z,98944.09
2022-09-01T17:43:05.087Z,98950.22
2022-09-01T17:45:52.813Z,98955.88
2022-09-01T17:48:52.854Z,98959.63
2022-09-01T17:51:20.090Z,98961.22
2022-09-01T17:54:02.424Z,98970.16
2022-09-01T17:56:45.380Z,98970.66
2022-09-01T17:59:22.668Z,98977.09
2022-09-01T18:01:56.133Z,98983.56
2022-09-01T18:04:35.672Z,98970.44
2022-09-01T18:07:14.655Z,98976.94
2022-09-01T18:09:54.455Z,98981.78
2022-09-01T18:12:30.996Z,98985.34
2022-09-01T18:15:19.967Z,98990.06
2022-09-01T18:18:02.714Z,98992.03
2022-09-01T18:20:39.185Z,98998.88
2022-09-01T18:23:12.495Z,99005.19
2022-09-01T18:25:51.132Z,99006.09
2022-09-01T18:28:19.098Z,99004.88
2022-09-01T18:31:25.531Z,99011.34
2022-09-01T18:34:08.383Z,99009.81
2022-09-01T18:36:44.915Z,99012.19
2022-09-01T18:39:41.361Z,99009.50
2022-09-01T18:42:34.325Z,99011.09
2022-09-01T18:45:14.138Z,99017.63
2022-09-01T18:48:01.507Z,99012.53
2022-09-01T18:50:43.760Z,98995.44
2022-09-01T18:53:34.236Z,99017.19
2022-09-01T18:56:37.450Z,99012.03
2022-09-01T18:59:36.764Z,99015.75
2022-09-01T19:02:22.935Z,99016.56
2022-09-01T19:04:57.901Z,99000.22
2022-09-01T19:07:58.246Z,99012.31
2022-09-01T19:10:42.704Z,98997.97
2022-09-01T19:13:28.228Z,99013.63
2022-09-01T19:16:24.793Z,99014.00
2022-09-01T19:18:52.017Z,99015.34
2022-09-01T19:21:25.305Z,99010.59
2022-09-01T19:24:13.686Z,99026.28
2022-09-01T19:26:55.050Z,99015.09
2022-09-01T19:29:31.893Z,99017.19
2022-09-01T19:32:07.112Z,99028.84
2022-09-01T19:34:41.798Z,99028.81
2022-09-01T19:37:10.768Z,99036.06
2022-09-01T19:39:44.732Z,99040.53
2022-09-01T19:42:18.342Z,99029.31
2022-09-01T19:45:27.638Z,99044.56
2022-09-01T19:48:19.224Z,99057.44
2022-09-01T19:50:51.033Z,99059.25
2022-09-01T19:53:50.925Z,99055.22
2022-09-01T19:56:23.661Z,99068.09
2022-09-01T19:59:14.198Z,99064.09
2022-09-01T20:02:00.233Z,99077.75
2022-09-01T20:04:47.402Z,99075.44
2022-09-01T20:07:44.745Z,99079.16
2022-09-01T20:10:14.944Z,99082.34
2022-09-01T20:13:00.545Z,99078.00
2022-09-01T20:15:40.265Z,99090.03
2022-09-01T20:18:13.712Z,99089.28
2022-09-01T20:20:48.806Z,99094.13
2022-09-01T20:23:42.996Z,99088.06
2022-09-01T20:26:19.060Z,99079.19
2022-09-01T20:29:16.611Z,99087.63
2022-09-01T20:31:46.543Z,99093.31
2022-09-01T20:34:49.071Z,99094.97
2022-09-01T20:37:22.056Z,99103.47
2022-09-01T20:40:02.700Z,99104.38
2022-09-01T20:42:43.892Z,99102.75
2022-09-01T20:45:27.495Z,99113.66
2022-09-01T20:48:01.888Z,99098.56
2022-09-01T20:50:44.484Z,99105.03
2022-09-01T20:53:30.293Z,99107.44
2022-09-01T20:56:18.761Z,99097.44
2022-09-01T20:59:32.268Z,99113.09
2022-09-01T21:02:10.340Z,99098.66
2022-09-01T21:04:47.880Z,99106.31
2022-09-01T21:07:41.966Z,99104.75
2022-09-01T21:10:53.890Z,99100.81
2022-09-01T21:13:33.838Z,99104.47
2022-09-01T21:16:36.141Z,99094.81
2022-09-01T21:19:22.502Z,99101.25
2022-09-01T21:22:01.674Z,99117.81
2022-09-01T21:24:28.991Z,99109.44
2022-09-01T21:26:58.183Z,99103.84
2022-09-01T21:29:51.027Z,99091.38
2022-09-01T21:32:18.502Z,99099.84
2022-09-01T21:34:47.511Z,99092.22
2022-09-01T21:37:15.222Z,99102.28
2022-09-01T21:39:42.331Z,99098.66
2022-09-01T21:42:10.966Z,99099.91
2022-09-01T21:44:39.836Z,99105.53
2022-09-01T21:47:07.068Z,99104.72
2022-09-01T21:49:34.371Z,99093.91
2022-09-01T21:52:01.640Z,99098.69
2022-09-01T21:54:28.823Z,99099.06
2022-09-01T21:56:55.965Z,99094.66
2022-09-01T21:59:23.142Z,99088.63
2022-09-01T22:01:50.850Z,99089.03
2022-09-01T22:04:23.158Z,99087.81
2022-09-01T22:06:51.566Z,99097.44
2022-09-01T22:09:20.614Z,99085.81
2022-09-01T22:11:48.910Z,99099.03
2022-09-01T22:14:16.442Z,99094.25
2022-09-01T22:16:43.921Z,99095.06
2022-09-01T22:19:11.006Z,99086.25
2022-09-01T22:21:41.669Z,99086.22
2022-09-01T22:24:09.050Z,99079.78
2022-09-01T22:26:36.507Z,99068.53
2022-09-01T22:29:06.896Z,99076.50
2022-09-01T22:31:37.774Z,99083.69
2022-09-01T22:34:06.296Z,99078.00
2022-09-01T22:36:39.777Z,99077.19
2022-09-01T22:39:09.395Z,99070.34
2022-09-01T22:41:38.144Z,99074.34
2022-09-01T22:44:05.498Z,99067.50
2022-09-01T22:46:35.569Z,99070.72
2022-09-01T22:49:03.277Z,99082.34
2022-09-01T22:51:32.151Z,99072.72
2022-09-01T22:53:59.465Z,99066.31
2022-09-01T22:56:29.566Z,99063.13
2022-09-01T22:59:01.546Z,99067.09
2022-09-01T23:01:33.150Z,99064.34
2022-09-01T23:04:01.885Z,99053.88
2022-09-01T23:06:30.657Z,99058.72
2022-09-01T23:08:59.848Z,99065.56
2022-09-01T23:11:27.557Z,99057.13
2022-09-01T23:13:55.772Z,99057.56
2022-09-01T23:16:25.194Z,99068.41
2022-09-01T23:18:53.552Z,99062.81
2022-09-01T23:21:24.080Z,99058.44
2022-09-01T23:23:57.390Z,99054.41
2022-09-01T23:26:27.812Z,99059.16
2022-09-01T23:28:55.556Z,99059.97
2022-09-01T23:31:25.225Z,99056.34
2022-09-01T23:33:52.955Z,99062.75
2022-09-01T23:36:23.931Z,99052.34
2022-09-01T23:38:51.788Z,99053.22
2022-09-01T23:41:23.342Z,99054.00
2022-09-01T23:43:52.942Z,99054.00
2022-09-01T23:46:29.472Z,99058.81
2022-09-01T23:48:57.491Z,99045.22
2022-09-01T23:51:25.702Z,99046.00
2022-09-01T23:53:53.363Z,99050.44
2022-09-01T23:56:23.555Z,99054.09
2022-09-01T23:58:51.218Z,99044.84
